Time;durP1;ratioP1;P1;durP2;ratioP2;P2;SDS_P1;SDS_P2;PMS_P1;PMS_P2;Temp;Humidity;BMP_temperature;BMP_pressure;BME280_temperature;BME280_humidity;BME280_pressure;Samples;Min_cycle;Max_cycle;Signal;HPM_P1;HPM_P2
2021/12/24 00:01:19;;;;;;;27.23;19.85;;;7.70;99.90;;;;;;5034857;28;20056;-43
2021/12/24 00:03:46;;;;;;;24.38;19.02;;;7.80;99.90;;;;;;5026733;28;20122;-43
2021/12/24 00:06:13;;;;;;;24.58;19.05;;;7.80;99.90;;;;;;5034420;28;20017;-43
2021/12/24 00:08:39;;;;;;;28.15;19.77;;;7.80;99.90;;;;;;5046050;28;20518;-44
2021/12/24 00:11:05;;;;;;;22.83;17.05;;;7.90;99.90;;;;;;5033771;28;20618;-42
2021/12/24 00:13:39;;;;;;;24.17;17.75;;;7.90;99.90;;;;;;5046843;28;20100;-43
2021/12/24 00:37:41;;;;;;;26.73;19.27;;;8.10;99.90;;;;;;5035723;28;20060;-43
2021/12/24 00:40:14;;;;;;;27.50;19.55;;;8.20;99.90;;;;;;5027105;28;20029;-43
2021/12/24 00:42:43;;;;;;;;;;;8.20;99.90;;;;;;5034795;28;20136;-43
2021/12/24 00:45:10;;;;;;;28.30;19.45;;;8.20;99.90;;;;;;5025674;28;20315;-42
2021/12/24 00:47:35;;;;;;;26.08;18.33;;;8.20;99.90;;;;;;5038452;28;20032;-44
2021/12/24 00:50:06;;;;;;;24.67;18.02;;;8.30;99.90;;;;;;5026379;28;20375;-42
2021/12/24 00:55:23;;;;;;;23.92;17.90;;;8.40;99.90;;;;;;5046919;28;20107;-32
2021/12/24 00:57:51;;;;;;;25.23;16.88;;;8.40;99.90;;;;;;5033761;28;20025;-34
2021/12/24 01:00:22;;;;;;;27.63;18.60;;;8.50;99.90;;;;;;5050599;28;20044;-33
2021/12/24 01:02:50;;;;;;;26.83;18.10;;;8.50;99.90;;;;;;5037519;28;20393;-33
2021/12/24 01:05:17;;;;;;;24.20;17.10;;;8.50;99.90;;;;;;5049448;28;20021;-33
2021/12/24 01:07:45;;;;;;;24.98;17.98;;;8.60;99.90;;;;;;5038318;28;20112;-35
2021/12/24 01:10:12;;;;;;;21.02;16.38;;;8.60;99.90;;;;;;5049407;28;20032;-43
2021/12/24 01:12:38;;;;;;;24.60;17.38;;;8.60;99.90;;;;;;5039487;28;20141;-43
2021/12/24 01:15:05;;;;;;;24.40;17.88;;;8.70;99.90;;;;;;5046553;28;20048;-43
2021/12/24 01:17:44;;;;;;;23.08;17.05;;;8.70;99.90;;;;;;5042688;28;20056;-42
2021/12/24 01:21:07;;;;;;;21.55;16.48;;;8.70;99.90;;;;;;5045274;28;20082;-44
2021/12/24 01:23:28;;;;;;;20.00;15.95;;;8.80;99.90;;;;;;5035799;28;20041;-44
2021/12/24 01:25:55;;;;;;;17.90;14.45;;;8.80;99.90;;;;;;5009927;28;20038;-42
2021/12/24 01:39:51;;;;;;;15.63;13.27;;;8.90;99.90;;;;;;5038384;28;20075;-43
2021/12/24 01:45:18;;;;;;;17.77;14.30;;;8.90;99.90;;;;;;5038284;28;20173;-43
2021/12/24 01:47:43;;;;;;;19.45;14.80;;;9.00;99.90;;;;;;5047324;28;20358;-44
2021/12/24 01:50:10;;;;;;;19.27;15.95;;;9.00;99.90;;;;;;5037949;28;20028;-43
2021/12/24 01:52:37;;;;;;;17.58;14.48;;;9.00;99.90;;;;;;5047589;28;20031;-44
2021/12/24 01:55:03;;;;;;;18.63;13.80;;;9.00;99.90;;;;;;5037460;28;20055;-44
2021/12/24 01:57:31;;;;;;;15.80;13.25;;;9.00;99.90;;;;;;5048673;28;20036;-47
2021/12/24 01:59:58;;;;;;;18.50;14.63;;;9.10;99.90;;;;;;5036300;28;20021;-43
2021/12/24 02:02:24;;;;;;;17.73;15.13;;;9.10;99.90;;;;;;5048341;28;20024;-43
2021/12/24 02:04:49;;;;;;;17.02;14.55;;;9.10;99.90;;;;;;5036087;28;20017;-44
2021/12/24 02:07:15;;;;;;;19.27;15.73;;;9.10;99.90;;;;;;5049065;28;20028;-44
2021/12/24 02:09:40;;;;;;;17.70;14.98;;;9.10;99.90;;;;;;5036611;28;20548;-44
2021/12/24 02:12:09;;;;;;;19.25;16.52;;;9.10;99.90;;;;;;5047136;28;20083;-44
2021/12/24 02:14:37;;;;;;;20.30;16.25;;;9.10;99.90;;;;;;5040171;28;20049;-43
2021/12/24 02:30:40;;;;;;;19.33;16.73;;;9.30;99.90;;;;;;5037746;28;20047;-43
2021/12/24 02:33:05;;;;;;;22.05;18.40;;;9.30;99.90;;;;;;5028325;28;20495;-44
2021/12/24 02:35:32;;;;;;;21.33;17.80;;;9.30;99.90;;;;;;5038390;28;20040;-42
2021/12/24 02:37:59;;;;;;;23.17;17.42;;;9.30;99.90;;;;;;5029683;28;20063;-43
2021/12/24 02:40:24;;;;;;;22.05;17.38;;;9.40;99.90;;;;;;5036680;28;20021;-45
2021/12/24 02:42:54;;;;;;;24.88;19.08;;;9.40;99.90;;;;;;5032704;28;20484;-43
2021/12/24 02:45:20;;;;;;;26.63;19.55;;;9.40;99.90;;;;;;5034085;28;20108;-43
2021/12/24 02:56:05;;;;;;;25.88;19.40;;;9.40;99.90;;;;;;5037505;28;20040;-43
2021/12/24 02:58:41;;;;;;;27.88;21.25;;;9.50;99.90;;;;;;5030181;28;20026;-44
2021/12/24 03:01:08;;;;;;;25.00;19.15;;;9.50;99.90;;;;;;5035981;28;20112;-45
2021/12/24 03:03:34;;;;;;;31.05;22.23;;;9.50;99.90;;;;;;5032037;28;20040;-43
2021/12/24 03:06:00;;;;;;;26.63;19.73;;;9.50;99.90;;;;;;5032725;28;20136;-44
2021/12/24 03:08:26;;;;;;;32.33;22.33;;;9.50;99.90;;;;;;5034388;28;20117;-43
2021/12/24 03:10:54;;;;;;;28.30;21.25;;;9.50;99.90;;;;;;5030408;28;20017;-43
2021/12/24 03:13:20;;;;;;;29.48;21.65;;;9.50;99.90;;;;;;5036104;28;20036;-43
2021/12/24 03:15:48;;;;;;;28.90;21.38;;;9.60;99.90;;;;;;5028931;28;20029;-44
2021/12/24 03:18:13;;;;;;;31.63;21.83;;;9.60;99.90;;;;;;5025795;28;20105;-43
2021/12/24 03:20:39;;;;;;;31.95;22.27;;;9.60;99.90;;;;;;5044900;28;20104;-43
2021/12/24 03:23:09;;;;;;;31.60;21.42;;;9.70;99.90;;;;;;5035770;28;20044;-43
2021/12/24 03:25:36;;;;;;;33.13;21.75;;;9.70;99.90;;;;;;5045785;28;20739;-44
2021/12/24 03:28:02;;;;;;;32.13;20.75;;;9.70;99.90;;;;;;5035574;28;20528;-44
2021/12/24 03:30:28;;;;;;;28.40;20.45;;;9.80;99.90;;;;;;5047236;28;20452;-44
2021/12/24 03:32:54;;;;;;;31.38;20.20;;;9.80;99.90;;;;;;5033589;28;20427;-44
2021/12/24 03:35:20;;;;;;;30.13;20.58;;;9.80;99.90;;;;;;5047835;28;20410;-44
2021/12/24 03:37:46;;;;;;;32.75;21.48;;;9.80;99.90;;;;;;5034765;28;20209;-44
2021/12/24 03:40:11;;;;;;;33.45;19.25;;;9.80;99.90;;;;;;5046242;28;20083;-43
2021/12/24 03:42:39;;;;;;;24.77;18.45;;;9.90;99.90;;;;;;5038058;28;20025;-43
2021/12/24 03:45:21;;;;;;;26.20;19.65;;;9.90;99.90;;;;;;5044269;28;20021;-43
2021/12/24 03:47:53;;;;;;;33.40;19.75;;;9.90;99.90;;;;;;5036210;28;20064;-43
2021/12/24 03:50:19;;;;;;;30.63;19.08;;;9.90;99.90;;;;;;5045006;28;20481;-44
2021/12/24 03:55:36;;;;;;;28.52;17.95;;;10.00;99.90;;;;;;5035966;28;20037;-43
2021/12/24 03:58:02;;;;;;;33.13;17.35;;;10.00;99.90;;;;;;5038253;28;20388;-43
2021/12/24 04:00:30;;;;;;;28.95;18.05;;;10.00;99.90;;;;;;5042669;28;20053;-43
2021/12/24 04:02:56;;;;;;;25.52;16.17;;;10.00;99.90;;;;;;5039556;28;20052;-43
2021/12/24 04:05:25;;;;;;;22.60;17.08;;;10.00;99.90;;;;;;5040949;28;20476;-44
2021/12/24 04:07:50;;;;;;;27.65;17.77;;;10.10;99.90;;;;;;5042038;28;20024;-42
2021/12/24 04:10:27;;;;;;;31.73;17.23;;;10.10;99.90;;;;;;5038660;28;20492;-42
2021/12/24 04:12:52;;;;;;;25.33;16.55;;;10.10;99.90;;;;;;5043523;28;20040;-42
2021/12/24 04:15:18;;;;;;;27.10;17.23;;;10.00;99.90;;;;;;5036942;28;20032;-44
2021/12/24 04:17:44;;;;;;;28.30;17.02;;;10.10;99.90;;;;;;5045322;28;20021;-43
2021/12/24 04:25:39;;;;;;;24.52;17.45;;;10.10;99.90;;;;;;5027817;28;20074;-44
2021/12/24 04:28:04;;;;;;;32.55;18.20;;;10.10;99.90;;;;;;5045241;28;20029;-44
2021/12/24 04:30:39;;;;;;;21.13;16.00;;;10.00;99.90;;;;;;5034858;28;20029;-45
2021/12/24 05:03:26;;;;;;;21.95;15.13;;;10.00;99.90;;;;;;5011052;28;20499;-44
2021/12/24 05:06:05;;;;;;;27.25;16.27;;;10.00;99.90;;;;;;5039388;28;20033;-43
2021/12/24 05:08:39;;;;;;;20.50;15.30;;;10.00;99.90;;;;;;5030276;28;20033;-43
2021/12/24 05:11:10;;;;;;;21.95;15.38;;;10.00;99.90;;;;;;5041635;28;20048;-42
2021/12/24 05:13:36;;;;;;;27.48;15.20;;;10.00;99.90;;;;;;5029949;28;20168;-43
2021/12/24 05:16:13;;;;;;;18.00;14.10;;;10.00;99.90;;;;;;5041745;28;20064;-42
2021/12/24 05:23:57;;;;;;;29.15;16.13;;;10.00;99.90;;;;;;5009884;28;20568;-44
2021/12/24 05:26:23;;;;;;;23.27;14.73;;;10.00;99.90;;;;;;5036586;28;20033;-44
2021/12/24 05:28:48;;;;;;;25.92;15.05;;;10.00;99.90;;;;;;5030592;28;20025;-43
2021/12/24 05:31:14;;;;;;;19.75;14.95;;;10.00;99.90;;;;;;5038979;28;20025;-44
2021/12/24 05:33:40;;;;;;;23.13;14.98;;;10.00;99.90;;;;;;5032207;28;20660;-43
2021/12/24 05:36:05;;;;;;;22.23;15.07;;;10.00;99.90;;;;;;5035922;28;20068;-43
2021/12/24 05:38:31;;;;;;;22.15;13.35;;;10.00;99.90;;;;;;5034695;28;20385;-44
2021/12/24 05:40:57;;;;;;;27.10;14.90;;;10.00;99.90;;;;;;5033019;28;20040;-42
2021/12/24 05:43:22;;;;;;;28.20;16.02;;;10.00;99.90;;;;;;5037194;28;20041;-42
2021/12/24 05:45:48;;;;;;;26.13;15.48;;;10.00;99.90;;;;;;5030660;28;20013;-43
2021/12/24 05:48:14;;;;;;;19.60;14.63;;;10.00;99.90;;;;;;5040264;28;20515;-44
2021/12/24 05:50:39;;;;;;;25.23;15.52;;;10.00;99.90;;;;;;5030089;28;20391;-43
2021/12/24 05:53:05;;;;;;;21.65;14.00;;;10.00;99.90;;;;;;5040360;28;20022;-42
2021/12/24 05:55:31;;;;;;;21.90;13.68;;;10.00;99.90;;;;;;5029036;28;20077;-43
2021/12/24 05:57:57;;;;;;;24.60;13.98;;;10.00;99.90;;;;;;5041364;28;20025;-44
2021/12/24 06:00:22;;;;;;;21.85;13.70;;;10.00;99.90;;;;;;5028747;28;20405;-43
2021/12/24 06:02:48;;;;;;;22.38;12.98;;;10.00;99.90;;;;;;5041088;28;20021;-43
2021/12/24 06:05:15;;;;;;;21.52;11.98;;;10.00;99.90;;;;;;5029524;28;20084;-44
2021/12/24 06:07:40;;;;;;;23.95;13.98;;;10.00;99.90;;;;;;5039405;28;20025;-43
2021/12/24 06:10:07;;;;;;;21.50;12.80;;;10.00;99.90;;;;;;5030257;28;20047;-43
2021/12/24 06:12:32;;;;;;;26.30;13.65;;;10.00;99.90;;;;;;5037525;28;20040;-43
2021/12/24 06:15:03;;;;;;;20.98;12.38;;;10.00;99.90;;;;;;5031531;28;20036;-44
2021/12/24 06:17:29;;;;;;;21.92;12.52;;;9.90;99.90;;;;;;5035634;28;20024;-33
2021/12/24 06:19:54;;;;;;;18.15;10.70;;;9.90;99.90;;;;;;5034270;28;20025;-44
2021/12/24 06:22:20;;;;;;;20.33;10.85;;;9.90;99.90;;;;;;5032495;28;20025;-43
2021/12/24 06:24:45;;;;;;;17.25;9.90;;;9.90;99.90;;;;;;5036126;28;20107;-44
2021/12/24 06:27:11;;;;;;;20.30;9.95;;;9.90;99.90;;;;;;5030545;28;20104;-44
2021/12/24 06:29:37;;;;;;;15.13;9.70;;;9.90;99.90;;;;;;5038826;28;20110;-43
2021/12/24 06:32:02;;;;;;;16.40;9.00;;;9.90;99.90;;;;;;5029523;28;20353;-44
2021/12/24 06:34:30;;;;;;;19.63;10.15;;;9.90;99.90;;;;;;5039745;28;20029;-43
2021/12/24 06:36:57;;;;;;;18.70;9.00;;;9.90;99.90;;;;;;5028337;28;20033;-45
2021/12/24 06:39:22;;;;;;;16.42;9.02;;;9.90;99.90;;;;;;5039931;28;20035;-44
2021/12/24 06:41:48;;;;;;;17.08;8.48;;;9.80;99.90;;;;;;5028513;28;20033;-43
2021/12/24 06:44:14;;;;;;;20.17;11.18;;;9.80;99.90;;;;;;5040102;28;20120;-44
2021/12/24 06:46:41;;;;;;;16.70;8.30;;;9.80;99.90;;;;;;5026389;28;20029;-43
2021/12/24 06:49:08;;;;;;;16.63;8.82;;;9.80;99.90;;;;;;5042392;28;20021;-43
2021/12/24 06:51:34;;;;;;;19.50;7.97;;;9.80;99.90;;;;;;5025714;28;20355;-43
2021/12/24 06:53:59;;;;;;;15.15;8.23;;;9.80;99.90;;;;;;5035457;28;20040;-43
2021/12/24 06:56:25;;;;;;;13.20;7.80;;;9.80;99.90;;;;;;5029220;28;20660;-44
2021/12/24 06:58:51;;;;;;;16.85;8.55;;;9.80;99.90;;;;;;5032638;28;20144;-45
2021/12/24 07:01:16;;;;;;;20.33;8.20;;;9.80;99.90;;;;;;5033334;28;20068;-44
2021/12/24 07:03:42;;;;;;;15.88;7.47;;;9.80;99.90;;;;;;5029540;28;20543;-44
2021/12/24 07:06:08;;;;;;;14.65;8.05;;;9.80;99.90;;;;;;5035406;28;20637;-43
2021/12/24 07:08:34;;;;;;;17.38;7.63;;;9.80;99.90;;;;;;5026909;28;20026;-44
2021/12/24 07:11:00;;;;;;;14.68;8.85;;;9.80;99.90;;;;;;5031736;28;20029;-44
2021/12/24 07:13:26;;;;;;;13.35;7.70;;;9.70;99.90;;;;;;5029108;28;20102;-34
2021/12/24 07:15:52;;;;;;;17.35;8.02;;;9.70;99.90;;;;;;5035931;28;20044;-43
2021/12/24 07:18:20;;;;;;;16.45;8.50;;;9.70;99.90;;;;;;5027411;28;20017;-44
2021/12/24 07:20:46;;;;;;;16.80;7.82;;;9.70;99.90;;;;;;5038918;28;20025;-43
2021/12/24 07:23:12;;;;;;;16.88;7.88;;;9.70;99.90;;;;;;5027547;28;20036;-43
2021/12/24 07:25:37;;;;;;;19.85;8.73;;;9.70;99.90;;;;;;5039119;28;20186;-43
2021/12/24 07:28:04;;;;;;;20.52;8.57;;;9.70;99.90;;;;;;5027126;28;20025;-43
2021/12/24 07:30:30;;;;;;;19.27;8.95;;;9.70;99.90;;;;;;5038499;28;20389;-43
2021/12/24 07:32:56;;;;;;;20.80;9.55;;;9.70;99.90;;;;;;5027099;28;20036;-43
2021/12/24 07:35:21;;;;;;;15.10;8.60;;;9.70;99.90;;;;;;5036337;28;20037;-43
2021/12/24 07:37:47;;;;;;;18.60;9.50;;;9.70;99.90;;;;;;5030670;28;20515;-44
2021/12/24 07:40:15;;;;;;;17.73;8.30;;;9.70;99.90;;;;;;5032507;28;20048;-44
2021/12/24 07:42:46;;;;;;;17.40;8.45;;;9.70;99.90;;;;;;5032608;28;20025;-43
2021/12/24 07:45:13;;;;;;;14.70;7.63;;;9.70;99.90;;;;;;5032198;28;20021;-44
2021/12/24 07:47:42;;;;;;;18.38;8.63;;;9.70;99.90;;;;;;5032867;28;20389;-42
2021/12/24 07:53:07;;;;;;;27.30;8.90;;;9.70;99.90;;;;;;5000380;28;20041;-44
2021/12/24 07:55:33;;;;;;;19.15;8.73;;;9.60;99.90;;;;;;5032125;28;20089;-43
2021/12/24 07:57:59;;;;;;;19.88;8.07;;;9.60;99.90;;;;;;5034416;28;20063;-43
2021/12/24 08:00:26;;;;;;;16.77;8.23;;;9.60;99.90;;;;;;5028632;28;20025;-42
2021/12/24 08:02:53;;;;;;;18.55;7.88;;;9.60;99.90;;;;;;5036636;28;20401;-43
2021/12/24 08:05:22;;;;;;;14.02;7.72;;;9.60;99.90;;;;;;5028174;28;20095;-43
2021/12/24 08:07:49;;;;;;;17.98;8.27;;;9.60;99.90;;;;;;5037175;28;20021;-43
2021/12/24 08:10:15;;;;;;;18.50;8.45;;;9.60;99.90;;;;;;5027816;28;20025;-44
2021/12/24 08:12:41;;;;;;;13.80;8.70;;;9.60;99.90;;;;;;5037923;28;20026;-42
2021/12/24 08:15:07;;;;;;;20.38;9.05;;;9.60;99.90;;;;;;5025930;28;20465;-43
2021/12/24 08:17:33;;;;;;;16.55;8.43;;;9.50;99.90;;;;;;5038675;28;20009;-44
2021/12/24 08:19:59;;;;;;;20.00;8.98;;;9.50;99.90;;;;;;5026715;28;20445;-43
2021/12/24 08:22:25;;;;;;;19.05;8.15;;;9.50;99.90;;;;;;5037821;28;20540;-44
2021/12/24 08:24:51;;;;;;;22.55;8.68;;;9.50;99.90;;;;;;5026552;28;20099;-44
2021/12/24 08:27:16;;;;;;;16.50;7.70;;;9.50;99.90;;;;;;5037242;28;20057;-42
2021/12/24 08:29:42;;;;;;;20.10;8.38;;;9.50;99.90;;;;;;5026901;28;20121;-44
2021/12/24 08:32:08;;;;;;;18.85;8.13;;;9.50;99.90;;;;;;5034607;28;20418;-42
2021/12/24 08:34:34;;;;;;;15.25;7.70;;;9.50;99.90;;;;;;5030375;28;20037;-42
2021/12/24 08:37:00;;;;;;;15.20;7.90;;;9.50;99.90;;;;;;5031189;28;20104;-43
2021/12/24 08:39:26;;;;;;;18.08;8.80;;;9.50;99.90;;;;;;5032796;28;20084;-43
2021/12/24 08:41:54;;;;;;;27.58;10.93;;;9.40;99.90;;;;;;5029519;28;20500;-43
2021/12/24 08:44:25;;;;;;;22.45;9.95;;;9.40;99.90;;;;;;5034857;28;20101;-43
2021/12/24 08:46:51;;;;;;;21.40;9.85;;;9.40;99.90;;;;;;5028117;28;20029;-44
2021/12/24 08:49:17;;;;;;;19.70;8.73;;;9.40;99.90;;;;;;5037063;28;20029;-43
2021/12/24 08:51:42;;;;;;;18.23;9.45;;;9.40;99.90;;;;;;5027708;28;20033;-44
2021/12/24 08:54:08;;;;;;;17.33;9.68;;;9.40;99.90;;;;;;5037037;28;20033;-42
2021/12/24 08:56:34;;;;;;;21.92;10.13;;;9.40;99.90;;;;;;5026183;28;20034;-43
2021/12/24 08:58:59;;;;;;;22.77;10.02;;;9.40;99.90;;;;;;5038332;28;20079;-44
2021/12/24 09:01:24;;;;;;;25.65;10.63;;;9.40;99.90;;;;;;5026429;28;20077;-42
2021/12/24 09:03:50;;;;;;;20.50;10.15;;;9.40;99.90;;;;;;5038077;28;20033;-43
2021/12/24 09:06:16;;;;;;;23.08;9.80;;;9.40;99.90;;;;;;5025918;28;20025;-43
2021/12/24 09:08:44;;;;;;;21.08;10.43;;;9.40;99.90;;;;;;5035581;28;20485;-43
2021/12/24 09:11:11;;;;;;;22.38;9.57;;;9.40;99.90;;;;;;5026242;28;20026;-44
2021/12/24 09:13:37;;;;;;;18.65;9.27;;;9.40;99.90;;;;;;5034879;28;20040;-42
2021/12/24 09:16:02;;;;;;;17.65;9.70;;;9.40;99.90;;;;;;5029843;28;20028;-43
2021/12/24 09:18:28;;;;;;;18.42;10.20;;;9.40;99.90;;;;;;5031541;28;20025;-43
2021/12/24 09:20:59;;;;;;;21.02;10.50;;;9.40;99.90;;;;;;5035719;28;20026;-43
2021/12/24 09:23:25;;;;;;;24.95;10.68;;;9.40;99.90;;;;;;5034212;28;20432;-43
2021/12/24 09:25:50;;;;;;;17.17;10.00;;;9.40;99.90;;;;;;5036443;28;20041;-44
2021/12/24 09:28:16;;;;;;;19.70;12.32;;;9.40;99.90;;;;;;5031646;28;20384;-43
2021/12/24 09:30:41;;;;;;;22.33;10.70;;;9.40;99.90;;;;;;5040095;28;20017;-42
2021/12/24 09:33:07;;;;;;;19.88;11.15;;;9.40;99.90;;;;;;5029876;28;20025;-43
2021/12/24 09:35:33;;;;;;;21.50;11.38;;;9.50;99.90;;;;;;5040443;28;20662;-43
2021/12/24 09:38:00;;;;;;;29.60;14.85;;;9.50;99.90;;;;;;5030077;28;20017;-43
2021/12/24 09:40:26;;;;;;;21.08;11.75;;;9.50;99.90;;;;;;5040066;28;20036;-44
2021/12/24 09:42:52;;;;;;;23.25;12.63;;;9.40;99.90;;;;;;5028888;28;20453;-43
2021/12/24 09:45:18;;;;;;;27.33;14.30;;;9.50;99.90;;;;;;5041442;28;20013;-43
2021/12/24 09:47:45;;;;;;;25.73;14.68;;;9.40;99.90;;;;;;5029502;28;20044;-44
2021/12/24 09:50:14;;;;;;;21.77;12.95;;;9.50;99.90;;;;;;5041018;28;20033;-43
2021/12/24 09:52:41;;;;;;;25.35;13.63;;;9.50;99.90;;;;;;5029102;28;20028;-44
2021/12/24 09:55:08;;;;;;;23.20;13.55;;;9.50;99.90;;;;;;5037956;28;20076;-44
2021/12/24 09:57:34;;;;;;;23.73;12.32;;;9.50;99.90;;;;;;5038126;28;20470;-43
2021/12/24 09:59:59;;;;;;;21.17;11.95;;;9.50;99.90;;;;;;5035630;28;20069;-43
2021/12/24 10:02:39;;;;;;;27.25;12.40;;;9.50;99.90;;;;;;5046972;28;20028;-44
2021/12/24 10:05:23;;;;;;;20.75;11.02;;;9.50;99.90;;;;;;5042151;28;20025;-43
2021/12/24 10:07:49;;;;;;;16.70;10.55;;;9.50;99.90;;;;;;5044987;28;20021;-45
2021/12/24 10:10:24;;;;;;;20.52;11.02;;;9.50;99.90;;;;;;5041776;28;20378;-43
2021/12/24 10:12:50;;;;;;;18.15;10.55;;;9.50;99.90;;;;;;5044574;28;20462;-44
2021/12/24 10:15:16;;;;;;;22.58;11.70;;;9.60;99.90;;;;;;5042362;28;20039;-42
2021/12/24 10:17:43;;;;;;;21.92;10.77;;;9.50;99.90;;;;;;5041273;28;20071;-43
2021/12/24 10:20:15;;;;;;;22.75;11.60;;;9.60;99.90;;;;;;5045129;28;20028;-43
2021/12/24 10:22:50;;;;;;;22.02;11.73;;;9.60;99.90;;;;;;5039088;28;20033;-44
2021/12/24 10:25:17;;;;;;;20.45;11.48;;;9.60;99.90;;;;;;5045312;28;20049;-44
2021/12/24 10:27:43;;;;;;;20.45;10.52;;;9.60;99.90;;;;;;5037993;28;20538;-43
2021/12/24 10:30:21;;;;;;;20.60;10.32;;;9.60;99.90;;;;;;5046552;28;20045;-43
2021/12/24 10:32:47;;;;;;;28.33;11.18;;;9.60;99.90;;;;;;5027430;28;20127;-42
2021/12/24 10:35:26;;;;;;;23.27;9.90;;;9.60;99.90;;;;;;5046082;28;20512;-45
2021/12/24 10:38:13;;;;;;;20.35;10.45;;;9.70;99.90;;;;;;5037106;28;20029;-43
2021/12/24 10:41:01;;;;;;;22.42;10.73;;;9.60;99.90;;;;;;5046160;28;20155;-43
2021/12/24 10:43:28;;;;;;;22.73;10.18;;;9.60;99.90;;;;;;5039692;28;20067;-43
2021/12/24 10:46:14;;;;;;;15.90;8.70;;;9.60;99.90;;;;;;5046065;28;20028;-43
2021/12/24 10:49:01;;;;;;;23.95;9.95;;;9.60;99.90;;;;;;5039973;28;20090;-44
2021/12/24 10:54:11;;;;;;;21.98;10.25;;;9.60;99.90;;;;;;5043369;28;20102;-43
2021/12/24 10:56:36;;;;;;;21.85;10.95;;;9.60;99.90;;;;;;5041772;28;20013;-43
2021/12/24 10:59:02;;;;;;;25.30;11.77;;;9.60;99.90;;;;;;5040743;28;20502;-43
2021/12/24 11:01:28;;;;;;;22.88;11.35;;;9.70;99.90;;;;;;5044697;28;20479;-43
2021/12/24 11:03:53;;;;;;;21.52;10.48;;;9.60;99.90;;;;;;5037269;28;20115;-43
2021/12/24 11:06:21;;;;;;;21.08;10.35;;;9.70;99.90;;;;;;5046581;28;20032;-43
2021/12/24 11:08:54;;;;;;;21.13;11.18;;;9.70;99.90;;;;;;5035496;28;20029;-44
2021/12/24 11:11:20;;;;;;;25.33;11.35;;;9.60;99.90;;;;;;5045605;28;20029;-44
2021/12/24 11:13:47;;;;;;;28.60;12.05;;;9.60;99.90;;;;;;5035981;28;20036;-43
2021/12/24 11:16:21;;;;;;;24.27;11.13;;;9.70;99.90;;;;;;5047578;28;20071;-44
2021/12/24 11:18:59;;;;;;;24.73;11.98;;;9.70;99.90;;;;;;5034409;28;20035;-43
2021/12/24 11:21:27;;;;;;;22.33;10.98;;;9.70;99.90;;;;;;5047285;28;20555;-44
2021/12/24 11:23:54;;;;;;;22.33;11.32;;;9.70;99.90;;;;;;5034012;28;20048;-43
2021/12/24 11:26:28;;;;;;;23.08;10.40;;;9.70;99.90;;;;;;5047733;28;20025;-44
2021/12/24 11:28:54;;;;;;;25.67;13.02;;;9.60;99.90;;;;;;5034248;28;20029;-44
2021/12/24 11:31:26;;;;;;;25.23;10.07;;;9.60;99.90;;;;;;5047080;28;20028;-44
2021/12/24 11:33:52;;;;;;;17.88;8.80;;;9.70;99.90;;;;;;5034367;28;20132;-43
2021/12/24 11:36:21;;;;;;;21.13;9.02;;;9.60;99.90;;;;;;5047480;28;20029;-44
2021/12/24 11:38:50;;;;;;;15.75;8.88;;;9.70;99.90;;;;;;5033980;28;20033;-43
2021/12/24 11:41:19;;;;;;;19.90;9.13;;;9.70;99.90;;;;;;5046925;28;20111;-43
2021/12/24 11:43:50;;;;;;;19.08;8.82;;;9.70;99.90;;;;;;5036564;28;20100;-44
2021/12/24 11:46:19;;;;;;;16.27;8.45;;;9.80;99.90;;;;;;5045224;28;20028;-42
2021/12/24 11:48:49;;;;;;;15.63;7.45;;;9.80;99.90;;;;;;5037591;28;20085;-42
2021/12/24 11:51:29;;;;;;;19.83;7.50;;;9.80;99.90;;;;;;5044187;28;20381;-43
2021/12/24 11:54:01;;;;;;;15.07;7.45;;;9.90;99.90;;;;;;5037661;28;20045;-43
2021/12/24 11:56:27;;;;;;;21.83;7.78;;;9.90;99.90;;;;;;5044207;28;20025;-44
2021/12/24 11:58:56;;;;;;;17.23;7.88;;;9.90;99.90;;;;;;5039431;28;20095;-42
2021/12/24 12:01:25;;;;;;;16.90;7.32;;;10.00;99.90;;;;;;5042111;28;20029;-44
2021/12/24 12:03:58;;;;;;;18.27;7.55;;;10.00;99.90;;;;;;5041462;28;20025;-44
2021/12/24 12:06:23;;;;;;;15.43;6.05;;;10.00;99.90;;;;;;5039361;28;20732;-42
2021/12/24 12:09:10;;;;;;;15.32;5.75;;;10.00;99.90;;;;;;5042417;28;20124;-43
2021/12/24 12:11:39;;;;;;;17.75;6.22;;;10.00;99.90;;;;;;5040489;28;20472;-43
2021/12/24 12:14:11;;;;;;;14.70;7.55;;;10.00;99.90;;;;;;5041177;28;20087;-43
2021/12/24 12:16:39;;;;;;;17.20;6.38;;;10.10;99.90;;;;;;5039291;28;20108;-45
2021/12/24 12:19:25;;;;;;;17.77;6.65;;;10.10;99.90;;;;;;5043519;28;20032;-43
2021/12/24 12:22:15;;;;;;;19.15;6.88;;;10.10;99.90;;;;;;5039031;28;20033;-43
2021/12/24 12:24:57;;;;;;;11.65;6.03;;;10.10;99.90;;;;;;5039892;28;20060;-43
2021/12/24 12:27:45;;;;;;;16.17;6.50;;;10.10;99.90;;;;;;5042407;28;20218;-44
2021/12/24 12:30:18;;;;;;;18.33;6.82;;;10.10;99.90;;;;;;5037537;28;20272;-43
2021/12/24 12:32:44;;;;;;;11.18;5.90;;;10.10;99.90;;;;;;5043819;28;20037;-44
2021/12/24 12:35:10;;;;;;;13.65;5.95;;;10.10;99.90;;;;;;5038029;28;20179;-43
2021/12/24 12:37:50;;;;;;;13.68;5.78;;;10.10;99.90;;;;;;5041420;28;20074;-50
2021/12/24 12:40:16;;;;;;;16.20;6.95;;;10.10;99.90;;;;;;5039188;28;20026;-44
2021/12/24 12:42:56;;;;;;;13.95;6.85;;;10.10;99.90;;;;;;5040260;28;20376;-44
2021/12/24 12:45:34;;;;;;;20.60;8.88;;;10.00;99.90;;;;;;5040045;28;20424;-44
2021/12/24 12:48:02;;;;;;;18.92;8.23;;;10.00;99.90;;;;;;5041594;28;20025;-43
2021/12/24 12:50:28;;;;;;;16.98;7.43;;;10.00;99.90;;;;;;5039396;28;20029;-44
2021/12/24 12:53:26;;;;;;;17.33;9.35;;;9.90;99.90;;;;;;5040060;28;20021;-42
2021/12/24 12:56:13;;;;;;;18.40;9.13;;;9.90;99.90;;;;;;5041989;28;20041;-44
2021/12/24 12:58:40;;;;;;;25.17;10.15;;;9.90;99.90;;;;;;5047697;28;20028;-42
2021/12/24 13:01:10;;;;;;;26.20;11.82;;;9.80;99.90;;;;;;5042006;28;20017;-44
2021/12/24 13:04:00;;;;;;;20.65;9.80;;;9.80;99.90;;;;;;5045630;28;20112;-43
2021/12/24 13:06:49;;;;;;;20.52;9.50;;;9.80;99.90;;;;;;5040663;28;20029;-43
2021/12/24 13:09:21;;;;;;;20.38;10.93;;;9.80;99.90;;;;;;5010046;28;20469;-43
2021/12/24 13:11:49;;;;;;;21.20;10.13;;;9.80;99.90;;;;;;5028641;28;20096;-45
2021/12/24 13:14:16;;;;;;;16.80;10.80;;;9.80;99.90;;;;;;5048933;28;20369;-43
2021/12/24 13:16:48;;;;;;;19.60;9.57;;;9.70;99.90;;;;;;5040070;28;20025;-43
2021/12/24 13:25:15;;;;;;;18.80;10.32;;;9.70;99.90;;;;;;5009274;28;20081;-43
2021/12/24 13:27:51;;;;;;;16.60;9.90;;;9.80;99.90;;;;;;5040645;28;20056;-44
2021/12/24 13:30:27;;;;;;;19.20;9.95;;;9.80;99.90;;;;;;5029881;28;20033;-44
2021/12/24 13:33:01;;;;;;;21.58;11.43;;;9.80;99.90;;;;;;5041632;28;20086;-43
2021/12/24 13:35:30;;;;;;;21.33;11.45;;;9.80;99.90;;;;;;5029320;28;20033;-43
2021/12/24 13:37:57;;;;;;;17.95;10.77;;;9.70;99.90;;;;;;5040886;28;20017;-42
2021/12/24 13:40:26;;;;;;;21.17;10.23;;;9.70;99.90;;;;;;5029402;28;20036;-44
2021/12/24 13:42:54;;;;;;;23.98;11.52;;;9.80;99.90;;;;;;5041046;28;20025;-43
2021/12/24 13:45:20;;;;;;;17.25;10.15;;;9.80;99.90;;;;;;5029811;28;20014;-43
2021/12/24 13:47:57;;;;;;;20.38;11.30;;;9.70;99.90;;;;;;5038460;28;20032;-43
2021/12/24 13:54:30;;;;;;;21.88;10.80;;;9.80;99.90;;;;;;5030831;28;20575;-43
2021/12/24 13:55:55;;;;;;;18.88;10.35;;;9.70;99.90;;;;;;5009689;28;20412;-43
2021/12/24 13:58:22;;;;;;;19.52;10.02;;;9.70;99.90;;;;;;5035048;28;20021;-42
2021/12/24 14:00:51;;;;;;;16.75;9.55;;;9.70;99.90;;;;;;5030017;28;20037;-43
2021/12/24 14:03:21;;;;;;;16.98;8.93;;;9.80;99.90;;;;;;5038107;28;20132;-43
2021/12/24 14:05:49;;;;;;;14.48;8.32;;;9.80;99.90;;;;;;5030335;28;20720;-44
2021/12/24 14:08:20;;;;;;;19.33;9.00;;;9.80;99.90;;;;;;5036500;28;20478;-44
2021/12/24 14:10:48;;;;;;;14.75;8.00;;;9.80;99.90;;;;;;5032559;28;20041;-43
2021/12/24 14:13:30;;;;;;;16.85;8.90;;;9.80;99.90;;;;;;5033809;28;20027;-43
2021/12/24 14:18:50;;;;;;;17.08;9.02;;;9.80;99.90;;;;;;5036804;28;20040;-42
2021/12/24 14:24:10;;;;;;;18.60;8.85;;;9.80;99.90;;;;;;5036301;28;20041;-43
2021/12/24 14:26:37;;;;;;;18.05;9.90;;;9.80;99.90;;;;;;5031026;28;20029;-43
2021/12/24 14:29:06;;;;;;;13.30;8.88;;;9.80;99.90;;;;;;5035799;28;20025;-44
2021/12/24 14:31:53;;;;;;;14.50;9.15;;;9.80;99.90;;;;;;5032231;28;20030;-43
2021/12/24 14:34:41;;;;;;;19.83;9.73;;;9.80;99.90;;;;;;5036618;28;20804;-43
2021/12/24 14:37:11;;;;;;;18.90;9.50;;;9.70;99.90;;;;;;5029016;28;20037;-42
2021/12/24 14:39:39;;;;;;;21.20;9.98;;;9.80;99.90;;;;;;5037620;28;20132;-43
2021/12/24 14:42:31;;;;;;;18.00;9.15;;;9.70;99.90;;;;;;5030071;28;20434;-43
2021/12/24 14:45:18;;;;;;;21.38;9.63;;;9.70;99.90;;;;;;5039670;28;20033;-42
2021/12/24 14:48:07;;;;;;;17.50;9.40;;;9.70;99.90;;;;;;5007648;28;20459;-43
2021/12/24 14:50:36;;;;;;;13.70;8.75;;;9.70;99.90;;;;;;5039801;28;20052;-44
2021/12/24 14:53:13;;;;;;;13.13;7.93;;;9.70;99.90;;;;;;5032278;28;20029;-42